sensor_id;sensor_type;location;lat;lon;timestamp;temperature;humidity
12309;DHT22;6217;48.150;17.142;2023-05-02T00:03:25;15.20;65.20
12309;DHT22;6217;48.150;17.142;2023-05-02T00:07:32;15.10;65.20
12309;DHT22;6217;48.150;17.142;2023-05-02T00:11:38;15.10;66.30
12309;DHT22;6217;48.150;17.142;2023-05-02T00:15:44;14.90;65.90
12309;DHT22;6217;48.150;17.142;2023-05-02T00:19:50;14.90;66.30
12309;DHT22;6217;48.150;17.142;2023-05-02T00:23:56;14.90;66.20
12309;DHT22;6217;48.150;17.142;2023-05-02T00:28:02;14.90;66.40
12309;DHT22;6217;48.150;17.142;2023-05-02T00:32:08;14.90;66.40
12309;DHT22;6217;48.150;17.142;2023-05-02T00:36:18;14.90;66.60
12309;DHT22;6217;48.150;17.142;2023-05-02T00:40:24;14.80;66.60
12309;DHT22;6217;48.150;17.142;2023-05-02T00:44:30;14.80;66.50
12309;DHT22;6217;48.150;17.142;2023-05-02T00:48:37;14.80;66.70
12309;DHT22;6217;48.150;17.142;2023-05-02T00:52:43;14.80;66.80
12309;DHT22;6217;48.150;17.142;2023-05-02T00:56:49;14.70;67.00
12309;DHT22;6217;48.150;17.142;2023-05-02T01:05:45;14.50;67.60
12309;DHT22;6217;48.150;17.142;2023-05-02T01:14:39;14.60;67.70
12309;DHT22;6217;48.150;17.142;2023-05-02T01:18:47;14.60;67.50
12309;DHT22;6217;48.150;17.142;2023-05-02T01:22:59;14.50;67.70
12309;DHT22;6217;48.150;17.142;2023-05-02T01:27:20;14.50;67.90
12309;DHT22;6217;48.150;17.142;2023-05-02T01:31:35;14.40;68.30
12309;DHT22;6217;48.150;17.142;2023-05-02T01:35:50;14.30;68.30
12309;DHT22;6217;48.150;17.142;2023-05-02T01:39:58;14.40;68.40
12309;DHT22;6217;48.150;17.142;2023-05-02T01:44:06;14.30;68.40
12309;DHT22;6217;48.150;17.142;2023-05-02T01:48:13;14.30;68.60
12309;DHT22;6217;48.150;17.142;2023-05-02T01:52:20;14.40;68.60
12309;DHT22;6217;48.150;17.142;2023-05-02T01:56:31;14.30;68.50
12309;DHT22;6217;48.150;17.142;2023-05-02T02:00:39;14.30;68.60
12309;DHT22;6217;48.150;17.142;2023-05-02T02:04:46;14.30;68.60
12309;DHT22;6217;48.150;17.142;2023-05-02T02:08:53;14.30;68.70
12309;DHT22;6217;48.150;17.142;2023-05-02T02:13:12;14.30;68.70
12309;DHT22;6217;48.150;17.142;2023-05-02T02:17:26;14.30;68.70
12309;DHT22;6217;48.150;17.142;2023-05-02T02:21:35;14.30;68.60
12309;DHT22;6217;48.150;17.142;2023-05-02T02:25:43;14.30;68.60
12309;DHT22;6217;48.150;17.142;2023-05-02T02:29:50;14.30;68.80
12309;DHT22;6217;48.150;17.142;2023-05-02T02:33:55;14.30;69.60
12309;DHT22;6217;48.150;17.142;2023-05-02T02:38:41;14.30;69.00
12309;DHT22;6217;48.150;17.142;2023-05-02T02:43:17;14.20;69.30
12309;DHT22;6217;48.150;17.142;2023-05-02T02:47:53;14.10;69.40
12309;DHT22;6217;48.150;17.142;2023-05-02T02:52:09;14.20;69.40
12309;DHT22;6217;48.150;17.142;2023-05-02T02:56:29;14.10;69.10
12309;DHT22;6217;48.150;17.142;2023-05-02T03:00:41;14.10;69.30
12309;DHT22;6217;48.150;17.142;2023-05-02T03:04:50;14.10;69.70
12309;DHT22;6217;48.150;17.142;2023-05-02T03:08:58;14.00;69.80
12309;DHT22;6217;48.150;17.142;2023-05-02T03:13:08;14.00;69.80
12309;DHT22;6217;48.150;17.142;2023-05-02T03:17:14;14.00;69.80
12309;DHT22;6217;48.150;17.142;2023-05-02T03:21:20;14.00;69.80
12309;DHT22;6217;48.150;17.142;2023-05-02T03:25:27;13.90;70.00
12309;DHT22;6217;48.150;17.142;2023-05-02T03:29:34;13.90;70.20
12309;DHT22;6217;48.150;17.142;2023-05-02T03:33:40;13.90;70.30
12309;DHT22;6217;48.150;17.142;2023-05-02T03:37:46;13.80;70.10
12309;DHT22;6217;48.150;17.142;2023-05-02T03:41:52;13.80;70.00
12309;DHT22;6217;48.150;17.142;2023-05-02T03:46:06;13.80;69.90
12309;DHT22;6217;48.150;17.142;2023-05-02T03:50:16;13.90;69.80
12309;DHT22;6217;48.150;17.142;2023-05-02T03:54:26;13.90;69.50
12309;DHT22;6217;48.150;17.142;2023-05-02T03:58:34;13.90;69.50
12309;DHT22;6217;48.150;17.142;2023-05-02T04:02:41;13.90;69.40
12309;DHT22;6217;48.150;17.142;2023-05-02T04:06:51;14.00;69.20
12309;DHT22;6217;48.150;17.142;2023-05-02T04:10:57;14.10;69.00
12309;DHT22;6217;48.150;17.142;2023-05-02T04:15:03;14.00;68.70
12309;DHT22;6217;48.150;17.142;2023-05-02T04:19:09;14.10;68.60
12309;DHT22;6217;48.150;17.142;2023-05-02T04:23:17;14.20;68.40
12309;DHT22;6217;48.150;17.142;2023-05-02T04:27:25;14.40;68.30
12309;DHT22;6217;48.150;17.142;2023-05-02T04:31:31;14.50;68.20
12309;DHT22;6217;48.150;17.142;2023-05-02T04:35:39;14.50;67.90
12309;DHT22;6217;48.150;17.142;2023-05-02T04:39:47;14.60;67.70
12309;DHT22;6217;48.150;17.142;2023-05-02T04:43:57;14.80;67.60
12309;DHT22;6217;48.150;17.142;2023-05-02T04:48:03;14.90;67.30
12309;DHT22;6217;48.150;17.142;2023-05-02T04:52:11;15.00;66.90
12309;DHT22;6217;48.150;17.142;2023-05-02T04:56:17;15.10;67.30
12309;DHT22;6217;48.150;17.142;2023-05-02T05:00:23;15.30;66.00
12309;DHT22;6217;48.150;17.142;2023-05-02T05:04:30;15.50;65.50
12309;DHT22;6217;48.150;17.142;2023-05-02T05:08:36;15.70;64.80
12309;DHT22;6217;48.150;17.142;2023-05-02T05:12:43;15.80;64.00
12309;DHT22;6217;48.150;17.142;2023-05-02T05:16:50;15.90;63.60
12309;DHT22;6217;48.150;17.142;2023-05-02T05:20:56;16.20;63.30
12309;DHT22;6217;48.150;17.142;2023-05-02T05:25:02;16.40;62.70
12309;DHT22;6217;48.150;17.142;2023-05-02T05:29:10;16.60;61.80
12309;DHT22;6217;48.150;17.142;2023-05-02T05:33:20;16.80;61.40
12309;DHT22;6217;48.150;17.142;2023-05-02T05:37:26;17.20;61.40
12309;DHT22;6217;48.150;17.142;2023-05-02T05:41:32;17.50;60.60
12309;DHT22;6217;48.150;17.142;2023-05-02T05:45:43;17.70;60.20
12309;DHT22;6217;48.150;17.142;2023-05-02T05:49:53;17.90;60.10
12309;DHT22;6217;48.150;17.142;2023-05-02T05:54:01;17.90;59.60
12309;DHT22;6217;48.150;17.142;2023-05-02T05:58:07;18.00;59.60
12309;DHT22;6217;48.150;17.142;2023-05-02T06:02:15;18.00;60.10
12309;DHT22;6217;48.150;17.142;2023-05-02T06:06:22;18.10;59.50
12309;DHT22;6217;48.150;17.142;2023-05-02T06:10:30;18.10;59.70
12309;DHT22;6217;48.150;17.142;2023-05-02T06:14:36;18.30;60.00
12309;DHT22;6217;48.150;17.142;2023-05-02T06:18:43;18.30;61.10
12309;DHT22;6217;48.150;17.142;2023-05-02T06:22:49;18.40;62.00
12309;DHT22;6217;48.150;17.142;2023-05-02T06:26:55;18.50;62.20
12309;DHT22;6217;48.150;17.142;2023-05-02T06:31:04;18.50;62.70
12309;DHT22;6217;48.150;17.142;2023-05-02T06:35:10;18.70;63.30
12309;DHT22;6217;48.150;17.142;2023-05-02T06:39:16;18.90;63.20
12309;DHT22;6217;48.150;17.142;2023-05-02T06:43:22;19.20;62.90
12309;DHT22;6217;48.150;17.142;2023-05-02T06:47:28;19.40;62.90
12309;DHT22;6217;48.150;17.142;2023-05-02T06:51:34;19.50;62.40
12309;DHT22;6217;48.150;17.142;2023-05-02T06:55:40;19.70;62.40
12309;DHT22;6217;48.150;17.142;2023-05-02T06:59:46;19.70;62.50
12309;DHT22;6217;48.150;17.142;2023-05-02T07:03:52;19.60;62.40
12309;DHT22;6217;48.150;17.142;2023-05-02T07:07:58;19.50;62.50
12309;DHT22;6217;48.150;17.142;2023-05-02T07:12:04;19.50;62.80
12309;DHT22;6217;48.150;17.142;2023-05-02T07:16:10;19.40;63.10
12309;DHT22;6217;48.150;17.142;2023-05-02T07:20:16;19.50;63.10
12309;DHT22;6217;48.150;17.142;2023-05-02T07:24:22;19.60;62.70
12309;DHT22;6217;48.150;17.142;2023-05-02T07:28:28;19.70;62.50
12309;DHT22;6217;48.150;17.142;2023-05-02T07:32:34;19.80;62.30
12309;DHT22;6217;48.150;17.142;2023-05-02T07:36:40;19.80;61.80
12309;DHT22;6217;48.150;17.142;2023-05-02T07:40:46;19.70;61.80
12309;DHT22;6217;48.150;17.142;2023-05-02T07:44:51;19.90;61.50
12309;DHT22;6217;48.150;17.142;2023-05-02T07:48:57;20.20;61.30
12309;DHT22;6217;48.150;17.142;2023-05-02T07:53:03;20.40;60.50
12309;DHT22;6217;48.150;17.142;2023-05-02T07:57:10;20.60;60.10
12309;DHT22;6217;48.150;17.142;2023-05-02T08:01:17;20.60;60.00
12309;DHT22;6217;48.150;17.142;2023-05-02T08:05:23;20.70;59.80
12309;DHT22;6217;48.150;17.142;2023-05-02T08:09:29;20.80;59.50
12309;DHT22;6217;48.150;17.142;2023-05-02T08:13:35;21.20;58.90
12309;DHT22;6217;48.150;17.142;2023-05-02T08:17:41;21.30;58.10
12309;DHT22;6217;48.150;17.142;2023-05-02T08:21:47;21.20;58.10
12309;DHT22;6217;48.150;17.142;2023-05-02T08:25:53;21.20;58.20
12309;DHT22;6217;48.150;17.142;2023-05-02T08:29:59;21.30;58.10
12309;DHT22;6217;48.150;17.142;2023-05-02T08:34:05;21.30;58.10
12309;DHT22;6217;48.150;17.142;2023-05-02T08:38:11;21.40;58.00
12309;DHT22;6217;48.150;17.142;2023-05-02T08:42:17;21.50;57.70
12309;DHT22;6217;48.150;17.142;2023-05-02T08:46:25;21.60;57.70
12309;DHT22;6217;48.150;17.142;2023-05-02T08:50:35;21.70;57.40
12309;DHT22;6217;48.150;17.142;2023-05-02T08:54:46;21.50;57.50
12309;DHT22;6217;48.150;17.142;2023-05-02T08:58:55;21.50;57.40
12309;DHT22;6217;48.150;17.142;2023-05-02T09:03:08;21.30;57.30
12309;DHT22;6217;48.150;17.142;2023-05-02T09:07:21;21.30;57.30
12309;DHT22;6217;48.150;17.142;2023-05-02T09:11:28;21.20;57.40
12309;DHT22;6217;48.150;17.142;2023-05-02T09:15:34;21.20;57.50
12309;DHT22;6217;48.150;17.142;2023-05-02T09:19:40;21.20;57.70
12309;DHT22;6217;48.150;17.142;2023-05-02T09:23:51;21.00;57.50
12309;DHT22;6217;48.150;17.142;2023-05-02T09:27:58;21.00;57.40
12309;DHT22;6217;48.150;17.142;2023-05-02T09:32:06;21.00;57.50
12309;DHT22;6217;48.150;17.142;2023-05-02T09:36:14;20.90;57.50
12309;DHT22;6217;48.150;17.142;2023-05-02T09:40:21;21.10;57.40
12309;DHT22;6217;48.150;17.142;2023-05-02T09:44:36;21.10;57.60
12309;DHT22;6217;48.150;17.142;2023-05-02T09:48:56;21.10;57.90
12309;DHT22;6217;48.150;17.142;2023-05-02T09:53:08;21.00;58.00
12309;DHT22;6217;48.150;17.142;2023-05-02T09:57:14;21.00;58.20
12309;DHT22;6217;48.150;17.142;2023-05-02T10:01:20;21.10;58.00
12309;DHT22;6217;48.150;17.142;2023-05-02T10:05:26;21.00;58.00
12309;DHT22;6217;48.150;17.142;2023-05-02T10:09:34;21.00;58.00
12309;DHT22;6217;48.150;17.142;2023-05-02T10:13:42;21.00;58.00
12309;DHT22;6217;48.150;17.142;2023-05-02T10:17:49;20.90;58.00
12309;DHT22;6217;48.150;17.142;2023-05-02T10:21:57;20.90;57.90
12309;DHT22;6217;48.150;17.142;2023-05-02T10:26:04;20.90;57.80
12309;DHT22;6217;48.150;17.142;2023-05-02T10:30:12;20.80;57.80
12309;DHT22;6217;48.150;17.142;2023-05-02T10:34:18;20.70;57.70
12309;DHT22;6217;48.150;17.142;2023-05-02T10:38:25;20.80;57.80
12309;DHT22;6217;48.150;17.142;2023-05-02T10:42:36;20.80;57.60
12309;DHT22;6217;48.150;17.142;2023-05-02T10:46:43;20.90;57.30
12309;DHT22;6217;48.150;17.142;2023-05-02T10:50:57;20.90;57.40
12309;DHT22;6217;48.150;17.142;2023-05-02T10:55:22;21.00;57.50
12309;DHT22;6217;48.150;17.142;2023-05-02T10:59:34;21.10;57.50
12309;DHT22;6217;48.150;17.142;2023-05-02T11:03:56;21.20;57.50
12309;DHT22;6217;48.150;17.142;2023-05-02T11:12:47;21.20;57.40
12309;DHT22;6217;48.150;17.142;2023-05-02T11:21:28;21.30;57.00
12309;DHT22;6217;48.150;17.142;2023-05-02T11:25:37;21.20;57.10
12309;DHT22;6217;48.150;17.142;2023-05-02T11:29:51;21.40;57.10
12309;DHT22;6217;48.150;17.142;2023-05-02T11:33:59;21.30;57.10
12309;DHT22;6217;48.150;17.142;2023-05-02T11:38:11;21.20;57.20
12309;DHT22;6217;48.150;17.142;2023-05-02T11:42:28;21.10;57.60
12309;DHT22;6217;48.150;17.142;2023-05-02T11:46:38;21.00;57.80
12309;DHT22;6217;48.150;17.142;2023-05-02T11:50:50;21.00;58.20
12309;DHT22;6217;48.150;17.142;2023-05-02T11:54:57;21.10;58.30
12309;DHT22;6217;48.150;17.142;2023-05-02T11:59:03;21.20;58.20
12309;DHT22;6217;48.150;17.142;2023-05-02T12:07:41;21.30;58.00
12309;DHT22;6217;48.150;17.142;2023-05-02T12:11:53;21.30;57.70
12309;DHT22;6217;48.150;17.142;2023-05-02T12:15:59;21.20;57.80
12309;DHT22;6217;48.150;17.142;2023-05-02T12:20:07;21.20;58.10
12309;DHT22;6217;48.150;17.142;2023-05-02T12:24:14;21.30;58.30
12309;DHT22;6217;48.150;17.142;2023-05-02T12:28:20;21.30;58.60
12309;DHT22;6217;48.150;17.142;2023-05-02T12:32:30;21.20;58.80
12309;DHT22;6217;48.150;17.142;2023-05-02T12:36:43;21.20;58.80
12309;DHT22;6217;48.150;17.142;2023-05-02T12:40:52;21.20;58.90
12309;DHT22;6217;48.150;17.142;2023-05-02T12:44:58;21.20;58.50
12309;DHT22;6217;48.150;17.142;2023-05-02T12:49:08;21.20;58.60
12309;DHT22;6217;48.150;17.142;2023-05-02T12:53:14;21.10;58.50
12309;DHT22;6217;48.150;17.142;2023-05-02T12:57:24;21.10;58.50
12309;DHT22;6217;48.150;17.142;2023-05-02T13:01:32;21.00;58.80
12309;DHT22;6217;48.150;17.142;2023-05-02T13:05:38;21.10;58.50
12309;DHT22;6217;48.150;17.142;2023-05-02T13:09:45;21.10;58.30
12309;DHT22;6217;48.150;17.142;2023-05-02T13:13:51;21.10;58.10
12309;DHT22;6217;48.150;17.142;2023-05-02T13:17:57;21.10;58.00
12309;DHT22;6217;48.150;17.142;2023-05-02T13:22:03;21.10;58.00
12309;DHT22;6217;48.150;17.142;2023-05-02T13:26:10;21.10;58.00
12309;DHT22;6217;48.150;17.142;2023-05-02T13:30:16;21.10;58.00
12309;DHT22;6217;48.150;17.142;2023-05-02T13:34:22;21.20;57.70
12309;DHT22;6217;48.150;17.142;2023-05-02T13:38:28;21.10;57.60
12309;DHT22;6217;48.150;17.142;2023-05-02T13:42:41;21.00;57.70
12309;DHT22;6217;48.150;17.142;2023-05-02T13:46:47;21.00;57.70
12309;DHT22;6217;48.150;17.142;2023-05-02T13:51:02;21.00;57.70
12309;DHT22;6217;48.150;17.142;2023-05-02T13:55:12;21.00;57.90
12309;DHT22;6217;48.150;17.142;2023-05-02T13:59:18;21.00;57.80
12309;DHT22;6217;48.150;17.142;2023-05-02T14:03:24;21.10;57.70
12309;DHT22;6217;48.150;17.142;2023-05-02T14:07:30;21.10;57.90
12309;DHT22;6217;48.150;17.142;2023-05-02T14:11:36;21.00;57.70
12309;DHT22;6217;48.150;17.142;2023-05-02T14:15:42;20.90;58.10
12309;DHT22;6217;48.150;17.142;2023-05-02T14:20:00;20.90;58.30
12309;DHT22;6217;48.150;17.142;2023-05-02T14:24:06;20.90;58.40
12309;DHT22;6217;48.150;17.142;2023-05-02T14:28:18;21.00;58.50
12309;DHT22;6217;48.150;17.142;2023-05-02T14:32:31;21.00;58.50
12309;DHT22;6217;48.150;17.142;2023-05-02T14:36:37;20.80;58.70
12309;DHT22;6217;48.150;17.142;2023-05-02T14:40:43;20.70;58.80
12309;DHT22;6217;48.150;17.142;2023-05-02T14:44:49;20.70;59.30
12309;DHT22;6217;48.150;17.142;2023-05-02T14:48:55;20.50;59.60
12309;DHT22;6217;48.150;17.142;2023-05-02T14:53:01;20.40;59.80
12309;DHT22;6217;48.150;17.142;2023-05-02T14:57:07;20.20;60.10
12309;DHT22;6217;48.150;17.142;2023-05-02T15:01:17;20.20;60.30
12309;DHT22;6217;48.150;17.142;2023-05-02T15:05:26;20.10;60.40
12309;DHT22;6217;48.150;17.142;2023-05-02T15:09:32;20.00;60.60
12309;DHT22;6217;48.150;17.142;2023-05-02T15:13:38;19.90;60.80
12309;DHT22;6217;48.150;17.142;2023-05-02T15:17:44;19.90;61.70
12309;DHT22;6217;48.150;17.142;2023-05-02T15:21:50;19.90;60.90
12309;DHT22;6217;48.150;17.142;2023-05-02T15:25:59;19.80;60.80
12309;DHT22;6217;48.150;17.142;2023-05-02T15:30:05;19.90;60.90
12309;DHT22;6217;48.150;17.142;2023-05-02T15:34:12;19.80;61.00
12309;DHT22;6217;48.150;17.142;2023-05-02T15:38:17;19.70;61.10
12309;DHT22;6217;48.150;17.142;2023-05-02T15:42:23;19.80;61.40
12309;DHT22;6217;48.150;17.142;2023-05-02T15:46:29;19.80;61.40
12309;DHT22;6217;48.150;17.142;2023-05-02T15:50:35;19.80;61.70
12309;DHT22;6217;48.150;17.142;2023-05-02T15:54:41;19.70;61.80
12309;DHT22;6217;48.150;17.142;2023-05-02T15:58:47;19.70;62.20
12309;DHT22;6217;48.150;17.142;2023-05-02T16:02:53;19.60;62.50
12309;DHT22;6217;48.150;17.142;2023-05-02T16:07:00;19.50;63.00
12309;DHT22;6217;48.150;17.142;2023-05-02T16:11:06;19.60;63.00
12309;DHT22;6217;48.150;17.142;2023-05-02T16:15:12;19.50;62.90
12309;DHT22;6217;48.150;17.142;2023-05-02T16:19:18;19.40;62.50
12309;DHT22;6217;48.150;17.142;2023-05-02T16:23:24;19.30;62.80
12309;DHT22;6217;48.150;17.142;2023-05-02T16:27:32;19.30;63.00
12309;DHT22;6217;48.150;17.142;2023-05-02T16:31:38;19.30;62.90
12309;DHT22;6217;48.150;17.142;2023-05-02T16:35:43;19.20;62.90
12309;DHT22;6217;48.150;17.142;2023-05-02T16:39:49;19.10;63.10
12309;DHT22;6217;48.150;17.142;2023-05-02T16:43:55;19.10;63.20
12309;DHT22;6217;48.150;17.142;2023-05-02T16:48:01;19.00;63.30
12309;DHT22;6217;48.150;17.142;2023-05-02T16:52:07;19.00;63.30
12309;DHT22;6217;48.150;17.142;2023-05-02T16:56:13;19.00;63.50
12309;DHT22;6217;48.150;17.142;2023-05-02T17:00:19;18.90;63.80
12309;DHT22;6217;48.150;17.142;2023-05-02T17:04:25;18.80;63.80
12309;DHT22;6217;48.150;17.142;2023-05-02T17:08:31;18.60;64.10
12309;DHT22;6217;48.150;17.142;2023-05-02T17:12:37;18.60;64.20
12309;DHT22;6217;48.150;17.142;2023-05-02T17:16:43;18.60;64.50
12309;DHT22;6217;48.150;17.142;2023-05-02T17:20:49;18.50;64.60
12309;DHT22;6217;48.150;17.142;2023-05-02T17:24:55;18.40;65.10
12309;DHT22;6217;48.150;17.142;2023-05-02T17:29:01;18.30;65.70
12309;DHT22;6217;48.150;17.142;2023-05-02T17:33:07;18.20;66.00
12309;DHT22;6217;48.150;17.142;2023-05-02T17:37:14;18.20;66.40
12309;DHT22;6217;48.150;17.142;2023-05-02T17:41:20;18.10;66.80
12309;DHT22;6217;48.150;17.142;2023-05-02T17:45:26;18.10;67.20
12309;DHT22;6217;48.150;17.142;2023-05-02T17:49:33;18.10;67.50
12309;DHT22;6217;48.150;17.142;2023-05-02T17:53:40;18.00;67.70
12309;DHT22;6217;48.150;17.142;2023-05-02T17:57:47;18.00;68.00
12309;DHT22;6217;48.150;17.142;2023-05-02T18:01:53;18.00;68.60
12309;DHT22;6217;48.150;17.142;2023-05-02T18:05:59;17.80;69.10
12309;DHT22;6217;48.150;17.142;2023-05-02T18:10:05;17.70;69.80
12309;DHT22;6217;48.150;17.142;2023-05-02T18:14:11;17.70;70.10
12309;DHT22;6217;48.150;17.142;2023-05-02T18:18:18;17.60;70.40
12309;DHT22;6217;48.150;17.142;2023-05-02T18:22:24;17.60;70.80
12309;DHT22;6217;48.150;17.142;2023-05-02T18:26:31;17.60;71.30
12309;DHT22;6217;48.150;17.142;2023-05-02T18:30:37;17.60;71.60
12309;DHT22;6217;48.150;17.142;2023-05-02T18:34:43;17.60;71.80
12309;DHT22;6217;48.150;17.142;2023-05-02T18:38:49;17.50;72.30
12309;DHT22;6217;48.150;17.142;2023-05-02T18:42:54;17.40;72.80
12309;DHT22;6217;48.150;17.142;2023-05-02T18:47:00;17.50;73.10
12309;DHT22;6217;48.150;17.142;2023-05-02T18:51:06;17.40;73.60
12309;DHT22;6217;48.150;17.142;2023-05-02T18:55:12;17.30;74.30
12309;DHT22;6217;48.150;17.142;2023-05-02T18:59:18;17.20;75.00
12309;DHT22;6217;48.150;17.142;2023-05-02T19:03:25;17.00;75.80
12309;DHT22;6217;48.150;17.142;2023-05-02T19:07:31;16.90;76.50
12309;DHT22;6217;48.150;17.142;2023-05-02T19:11:37;16.80;77.20
12309;DHT22;6217;48.150;17.142;2023-05-02T19:15:43;16.90;77.80
12309;DHT22;6217;48.150;17.142;2023-05-02T19:19:49;16.70;78.50
12309;DHT22;6217;48.150;17.142;2023-05-02T19:23:56;16.70;79.30
12309;DHT22;6217;48.150;17.142;2023-05-02T19:28:02;16.70;79.90
12309;DHT22;6217;48.150;17.142;2023-05-02T19:32:08;16.60;80.00
12309;DHT22;6217;48.150;17.142;2023-05-02T19:36:15;16.60;81.30
12309;DHT22;6217;48.150;17.142;2023-05-02T19:40:21;16.50;80.80
12309;DHT22;6217;48.150;17.142;2023-05-02T19:44:27;16.50;81.00
12309;DHT22;6217;48.150;17.142;2023-05-02T19:48:34;16.50;81.50
12309;DHT22;6217;48.150;17.142;2023-05-02T19:52:40;16.60;81.60
12309;DHT22;6217;48.150;17.142;2023-05-02T19:56:46;16.60;81.80
12309;DHT22;6217;48.150;17.142;2023-05-02T20:00:54;16.60;82.10
12309;DHT22;6217;48.150;17.142;2023-05-02T20:05:00;16.60;82.10
12309;DHT22;6217;48.150;17.142;2023-05-02T20:09:06;16.60;82.40
12309;DHT22;6217;48.150;17.142;2023-05-02T20:13:12;16.60;82.50
12309;DHT22;6217;48.150;17.142;2023-05-02T20:17:17;16.70;82.80
12309;DHT22;6217;48.150;17.142;2023-05-02T20:21:23;16.60;83.10
12309;DHT22;6217;48.150;17.142;2023-05-02T20:25:29;16.60;83.30
12309;DHT22;6217;48.150;17.142;2023-05-02T20:29:35;16.60;83.30
12309;DHT22;6217;48.150;17.142;2023-05-02T20:33:41;16.50;83.30
12309;DHT22;6217;48.150;17.142;2023-05-02T20:37:47;16.50;83.70
12309;DHT22;6217;48.150;17.142;2023-05-02T20:41:54;16.50;84.00
12309;DHT22;6217;48.150;17.142;2023-05-02T20:46:08;16.50;84.20
12309;DHT22;6217;48.150;17.142;2023-05-02T20:50:15;16.40;84.50
12309;DHT22;6217;48.150;17.142;2023-05-02T20:54:21;16.40;84.50
12309;DHT22;6217;48.150;17.142;2023-05-02T20:58:27;16.40;84.60
12309;DHT22;6217;48.150;17.142;2023-05-02T21:02:33;16.40;84.80
12309;DHT22;6217;48.150;17.142;2023-05-02T21:06:39;16.40;85.20
12309;DHT22;6217;48.150;17.142;2023-05-02T21:10:45;16.40;85.50
12309;DHT22;6217;48.150;17.142;2023-05-02T21:14:51;16.30;85.40
12309;DHT22;6217;48.150;17.142;2023-05-02T21:18:57;16.30;85.60
12309;DHT22;6217;48.150;17.142;2023-05-02T21:23:03;16.20;85.90
12309;DHT22;6217;48.150;17.142;2023-05-02T21:27:09;16.10;86.00
12309;DHT22;6217;48.150;17.142;2023-05-02T21:31:15;16.10;86.30
12309;DHT22;6217;48.150;17.142;2023-05-02T21:35:21;16.10;86.30
12309;DHT22;6217;48.150;17.142;2023-05-02T21:39:26;16.10;86.00
12309;DHT22;6217;48.150;17.142;2023-05-02T21:43:36;16.10;86.30
12309;DHT22;6217;48.150;17.142;2023-05-02T21:47:43;16.10;86.30
12309;DHT22;6217;48.150;17.142;2023-05-02T21:51:49;16.20;86.10
12309;DHT22;6217;48.150;17.142;2023-05-02T21:55:55;16.10;86.30
12309;DHT22;6217;48.150;17.142;2023-05-02T22:00:01;16.10;86.40
12309;DHT22;6217;48.150;17.142;2023-05-02T22:04:07;16.10;86.50
12309;DHT22;6217;48.150;17.142;2023-05-02T22:08:13;16.20;86.40
12309;DHT22;6217;48.150;17.142;2023-05-02T22:12:19;16.20;86.50
12309;DHT22;6217;48.150;17.142;2023-05-02T22:16:25;16.20;86.70
12309;DHT22;6217;48.150;17.142;2023-05-02T22:20:31;16.20;87.00
12309;DHT22;6217;48.150;17.142;2023-05-02T22:24:37;16.20;87.20
12309;DHT22;6217;48.150;17.142;2023-05-02T22:28:42;16.10;87.40
12309;DHT22;6217;48.150;17.142;2023-05-02T22:32:48;16.20;87.70
12309;DHT22;6217;48.150;17.142;2023-05-02T22:36:54;16.10;88.00
12309;DHT22;6217;48.150;17.142;2023-05-02T22:41:00;16.10;88.40
12309;DHT22;6217;48.150;17.142;2023-05-02T22:45:06;16.10;88.80
12309;DHT22;6217;48.150;17.142;2023-05-02T22:49:13;16.00;89.00
12309;DHT22;6217;48.150;17.142;2023-05-02T22:53:20;16.10;89.20
12309;DHT22;6217;48.150;17.142;2023-05-02T22:57:26;16.10;89.40
12309;DHT22;6217;48.150;17.142;2023-05-02T23:01:32;16.00;89.60
12309;DHT22;6217;48.150;17.142;2023-05-02T23:05:38;15.90;89.90
12309;DHT22;6217;48.150;17.142;2023-05-02T23:09:44;15.70;90.20
12309;DHT22;6217;48.150;17.142;2023-05-02T23:13:50;15.70;90.30
12309;DHT22;6217;48.150;17.142;2023-05-02T23:17:55;15.70;90.30
12309;DHT22;6217;48.150;17.142;2023-05-02T23:22:01;15.70;90.40
12309;DHT22;6217;48.150;17.142;2023-05-02T23:26:10;15.60;90.50
12309;DHT22;6217;48.150;17.142;2023-05-02T23:30:16;15.60;90.70
12309;DHT22;6217;48.150;17.142;2023-05-02T23:34:22;15.50;90.70
12309;DHT22;6217;48.150;17.142;2023-05-02T23:38:28;15.40;90.80
12309;DHT22;6217;48.150;17.142;2023-05-02T23:42:35;15.40;90.90
12309;DHT22;6217;48.150;17.142;2023-05-02T23:46:44;15.30;91.00
12309;DHT22;6217;48.150;17.142;2023-05-02T23:50:50;15.30;91.10
12309;DHT22;6217;48.150;17.142;2023-05-02T23:54:56;15.30;91.00
12309;DHT22;6217;48.150;17.142;2023-05-02T23:59:02;15.30;90.90
